sensor_id;sensor_type;location;lat;lon;timestamp;P1;durP1;ratioP1;P2;durP2;ratioP2
54167;SDS011;40072;50.958;3.592;2022-09-03T00:01:34;10.25;;;8.90;;
54167;SDS011;40072;50.958;3.592;2022-09-03T00:04:09;10.25;;;8.90;;
54167;SDS011;40072;50.958;3.592;2022-09-03T00:06:44;12.07;;;8.95;;
54167;SDS011;40072;50.958;3.592;2022-09-03T00:09:26;11.25;;;8.45;;
54167;SDS011;40072;50.958;3.592;2022-09-03T00:14:56;12.93;;;8.82;;
54167;SDS011;40072;50.958;3.592;2022-09-03T00:17:29;14.70;;;8.90;;
54167;SDS011;40072;50.958;3.592;2022-09-03T00:20:06;10.57;;;8.70;;
54167;SDS011;40072;50.958;3.592;2022-09-03T00:22:59;10.32;;;8.23;;
54167;SDS011;40072;50.958;3.592;2022-09-03T00:25:37;13.10;;;8.70;;
54167;SDS011;40072;50.958;3.592;2022-09-03T00:28:18;13.02;;;7.25;;
54167;SDS011;40072;50.958;3.592;2022-09-03T00:30:50;15.97;;;9.10;;
54167;SDS011;40072;50.958;3.592;2022-09-03T00:33:24;12.18;;;8.38;;
54167;SDS011;40072;50.958;3.592;2022-09-03T00:38:26;11.40;;;8.02;;
54167;SDS011;40072;50.958;3.592;2022-09-03T00:48:29;11.23;;;9.18;;
54167;SDS011;40072;50.958;3.592;2022-09-03T00:51:17;11.18;;;8.95;;
54167;SDS011;40072;50.958;3.592;2022-09-03T00:53:56;10.68;;;8.75;;
54167;SDS011;40072;50.958;3.592;2022-09-03T00:56:49;9.73;;;8.50;;
54167;SDS011;40072;50.958;3.592;2022-09-03T00:59:44;10.40;;;8.35;;
54167;SDS011;40072;50.958;3.592;2022-09-03T01:02:19;10.82;;;8.60;;
54167;SDS011;40072;50.958;3.592;2022-09-03T01:05:12;11.43;;;8.70;;
54167;SDS011;40072;50.958;3.592;2022-09-03T01:07:46;12.57;;;8.40;;
54167;SDS011;40072;50.958;3.592;2022-09-03T01:10:27;10.32;;;8.82;;
54167;SDS011;40072;50.958;3.592;2022-09-03T01:29:50;9.25;;;8.45;;
54167;SDS011;40072;50.958;3.592;2022-09-03T01:38:41;13.63;;;9.23;;
54167;SDS011;40072;50.958;3.592;2022-09-03T01:40:44;11.50;;;9.45;;
54167;SDS011;40072;50.958;3.592;2022-09-03T01:43:58;11.35;;;10.25;;
54167;SDS011;40072;50.958;3.592;2022-09-03T01:46:38;14.38;;;10.32;;
54167;SDS011;40072;50.958;3.592;2022-09-03T01:51:35;10.77;;;9.77;;
54167;SDS011;40072;50.958;3.592;2022-09-03T01:57:13;12.07;;;9.68;;
54167;SDS011;40072;50.958;3.592;2022-09-03T02:00:08;11.00;;;9.98;;
54167;SDS011;40072;50.958;3.592;2022-09-03T02:02:39;10.68;;;9.57;;
54167;SDS011;40072;50.958;3.592;2022-09-03T02:05:11;10.65;;;9.55;;
54167;SDS011;40072;50.958;3.592;2022-09-03T02:07:43;10.60;;;9.50;;
54167;SDS011;40072;50.958;3.592;2022-09-03T02:10:14;11.38;;;9.10;;
54167;SDS011;40072;50.958;3.592;2022-09-03T02:12:48;11.52;;;10.00;;
54167;SDS011;40072;50.958;3.592;2022-09-03T02:15:19;11.32;;;10.25;;
54167;SDS011;40072;50.958;3.592;2022-09-03T02:17:47;10.90;;;9.15;;
54167;SDS011;40072;50.958;3.592;2022-09-03T02:20:18;10.05;;;9.05;;
54167;SDS011;40072;50.958;3.592;2022-09-03T02:22:46;10.48;;;9.38;;
54167;SDS011;40072;50.958;3.592;2022-09-03T02:25:12;9.90;;;9.10;;
54167;SDS011;40072;50.958;3.592;2022-09-03T02:27:39;11.93;;;9.52;;
54167;SDS011;40072;50.958;3.592;2022-09-03T02:30:05;11.77;;;10.07;;
54167;SDS011;40072;50.958;3.592;2022-09-03T02:32:32;10.65;;;9.55;;
54167;SDS011;40072;50.958;3.592;2022-09-03T02:34:57;12.90;;;9.82;;
54167;SDS011;40072;50.958;3.592;2022-09-03T02:37:24;10.57;;;9.48;;
54167;SDS011;40072;50.958;3.592;2022-09-03T02:39:49;11.25;;;10.10;;
54167;SDS011;40072;50.958;3.592;2022-09-03T02:42:18;11.00;;;9.17;;
54167;SDS011;40072;50.958;3.592;2022-09-03T02:44:48;13.15;;;9.80;;
54167;SDS011;40072;50.958;3.592;2022-09-03T02:47:35;10.50;;;9.10;;
54167;SDS011;40072;50.958;3.592;2022-09-03T02:50:04;10.52;;;9.52;;
54167;SDS011;40072;50.958;3.592;2022-09-03T02:52:30;9.70;;;8.75;;
54167;SDS011;40072;50.958;3.592;2022-09-03T02:54:56;10.52;;;9.50;;
54167;SDS011;40072;50.958;3.592;2022-09-03T02:57:22;13.35;;;9.32;;
54167;SDS011;40072;50.958;3.592;2022-09-03T02:59:47;11.70;;;9.20;;
54167;SDS011;40072;50.958;3.592;2022-09-03T03:02:13;13.27;;;9.63;;
54167;SDS011;40072;50.958;3.592;2022-09-03T03:04:39;14.02;;;8.80;;
54167;SDS011;40072;50.958;3.592;2022-09-03T03:07:05;9.15;;;7.95;;
54167;SDS011;40072;50.958;3.592;2022-09-03T03:09:31;12.77;;;9.30;;
54167;SDS011;40072;50.958;3.592;2022-09-03T03:11:56;10.52;;;9.65;;
54167;SDS011;40072;50.958;3.592;2022-09-03T03:14:22;10.68;;;9.57;;
54167;SDS011;40072;50.958;3.592;2022-09-03T03:16:48;13.88;;;10.02;;
54167;SDS011;40072;50.958;3.592;2022-09-03T03:19:15;11.45;;;10.02;;
54167;SDS011;40072;50.958;3.592;2022-09-03T03:21:41;11.43;;;9.20;;
54167;SDS011;40072;50.958;3.592;2022-09-03T03:24:07;10.82;;;9.85;;
54167;SDS011;40072;50.958;3.592;2022-09-03T03:26:33;11.75;;;9.50;;
54167;SDS011;40072;50.958;3.592;2022-09-03T03:28:59;11.20;;;10.15;;
54167;SDS011;40072;50.958;3.592;2022-09-03T03:31:29;10.75;;;9.57;;
54167;SDS011;40072;50.958;3.592;2022-09-03T03:33:55;14.85;;;10.73;;
54167;SDS011;40072;50.958;3.592;2022-09-03T03:36:24;15.13;;;10.52;;
54167;SDS011;40072;50.958;3.592;2022-09-03T03:38:55;11.82;;;10.68;;
54167;SDS011;40072;50.958;3.592;2022-09-03T03:41:26;14.40;;;11.70;;
54167;SDS011;40072;50.958;3.592;2022-09-03T03:43:55;16.77;;;12.15;;
54167;SDS011;40072;50.958;3.592;2022-09-03T03:46:23;15.20;;;11.98;;
54167;SDS011;40072;50.958;3.592;2022-09-03T03:48:50;13.18;;;11.65;;
54167;SDS011;40072;50.958;3.592;2022-09-03T03:51:16;17.73;;;12.27;;
54167;SDS011;40072;50.958;3.592;2022-09-03T03:53:43;15.20;;;12.25;;
54167;SDS011;40072;50.958;3.592;2022-09-03T03:56:11;19.65;;;13.23;;
54167;SDS011;40072;50.958;3.592;2022-09-03T03:58:38;13.97;;;12.50;;
54167;SDS011;40072;50.958;3.592;2022-09-03T04:01:12;14.60;;;13.20;;
54167;SDS011;40072;50.958;3.592;2022-09-03T04:03:39;16.90;;;13.40;;
54167;SDS011;40072;50.958;3.592;2022-09-03T04:06:06;14.02;;;12.43;;
54167;SDS011;40072;50.958;3.592;2022-09-03T04:08:33;15.07;;;13.15;;
54167;SDS011;40072;50.958;3.592;2022-09-03T04:11:01;15.18;;;13.02;;
54167;SDS011;40072;50.958;3.592;2022-09-03T04:13:32;14.55;;;13.05;;
54167;SDS011;40072;50.958;3.592;2022-09-03T04:16:00;14.23;;;12.75;;
54167;SDS011;40072;50.958;3.592;2022-09-03T04:18:26;15.90;;;13.57;;
54167;SDS011;40072;50.958;3.592;2022-09-03T04:20:52;17.30;;;15.52;;
54167;SDS011;40072;50.958;3.592;2022-09-03T04:23:19;17.15;;;15.35;;
54167;SDS011;40072;50.958;3.592;2022-09-03T04:25:50;18.77;;;15.90;;
54167;SDS011;40072;50.958;3.592;2022-09-03T04:28:17;18.77;;;16.60;;
54167;SDS011;40072;50.958;3.592;2022-09-03T04:30:42;18.65;;;16.80;;
54167;SDS011;40072;50.958;3.592;2022-09-03T04:33:08;19.23;;;17.00;;
54167;SDS011;40072;50.958;3.592;2022-09-03T04:35:33;18.67;;;15.15;;
54167;SDS011;40072;50.958;3.592;2022-09-03T04:37:59;17.80;;;15.73;;
54167;SDS011;40072;50.958;3.592;2022-09-03T04:40:24;19.48;;;16.60;;
54167;SDS011;40072;50.958;3.592;2022-09-03T04:42:55;16.67;;;15.13;;
54167;SDS011;40072;50.958;3.592;2022-09-03T04:45:21;18.40;;;15.68;;
54167;SDS011;40072;50.958;3.592;2022-09-03T04:47:56;19.67;;;15.00;;
54167;SDS011;40072;50.958;3.592;2022-09-03T04:50:23;16.90;;;14.95;;
54167;SDS011;40072;50.958;3.592;2022-09-03T04:52:49;17.73;;;16.02;;
54167;SDS011;40072;50.958;3.592;2022-09-03T04:55:15;18.75;;;16.73;;
54167;SDS011;40072;50.958;3.592;2022-09-03T04:57:40;17.85;;;15.90;;
54167;SDS011;40072;50.958;3.592;2022-09-03T05:00:07;18.00;;;15.55;;
54167;SDS011;40072;50.958;3.592;2022-09-03T05:02:35;18.30;;;16.40;;
54167;SDS011;40072;50.958;3.592;2022-09-03T05:05:01;18.27;;;15.95;;
54167;SDS011;40072;50.958;3.592;2022-09-03T05:07:28;20.80;;;16.13;;
54167;SDS011;40072;50.958;3.592;2022-09-03T05:10:03;18.42;;;16.27;;
54167;SDS011;40072;50.958;3.592;2022-09-03T05:12:33;19.08;;;16.83;;
54167;SDS011;40072;50.958;3.592;2022-09-03T05:14:58;19.45;;;16.15;;
54167;SDS011;40072;50.958;3.592;2022-09-03T05:17:25;21.27;;;17.85;;
54167;SDS011;40072;50.958;3.592;2022-09-03T05:19:51;26.10;;;17.13;;
54167;SDS011;40072;50.958;3.592;2022-09-03T05:22:17;21.48;;;16.88;;
54167;SDS011;40072;50.958;3.592;2022-09-03T05:24:45;18.52;;;16.73;;
54167;SDS011;40072;50.958;3.592;2022-09-03T05:27:12;20.52;;;18.42;;
54167;SDS011;40072;50.958;3.592;2022-09-03T05:29:42;23.53;;;17.73;;
54167;SDS011;40072;50.958;3.592;2022-09-03T05:32:08;20.92;;;18.80;;
54167;SDS011;40072;50.958;3.592;2022-09-03T05:34:34;21.15;;;18.27;;
54167;SDS011;40072;50.958;3.592;2022-09-03T05:37:00;22.90;;;18.40;;
54167;SDS011;40072;50.958;3.592;2022-09-03T05:39:26;21.65;;;19.33;;
54167;SDS011;40072;50.958;3.592;2022-09-03T05:41:51;22.38;;;19.42;;
54167;SDS011;40072;50.958;3.592;2022-09-03T05:44:17;22.73;;;19.73;;
54167;SDS011;40072;50.958;3.592;2022-09-03T05:46:47;21.80;;;19.58;;
54167;SDS011;40072;50.958;3.592;2022-09-03T05:49:13;21.52;;;19.02;;
54167;SDS011;40072;50.958;3.592;2022-09-03T05:51:38;23.05;;;20.35;;
54167;SDS011;40072;50.958;3.592;2022-09-03T05:54:04;23.27;;;19.65;;
54167;SDS011;40072;50.958;3.592;2022-09-03T05:56:32;24.42;;;20.92;;
54167;SDS011;40072;50.958;3.592;2022-09-03T05:59:00;25.40;;;21.30;;
54167;SDS011;40072;50.958;3.592;2022-09-03T06:01:33;29.20;;;21.45;;
54167;SDS011;40072;50.958;3.592;2022-09-03T06:04:01;24.27;;;21.63;;
54167;SDS011;40072;50.958;3.592;2022-09-03T06:06:29;24.20;;;21.23;;
54167;SDS011;40072;50.958;3.592;2022-09-03T06:08:57;22.75;;;20.30;;
54167;SDS011;40072;50.958;3.592;2022-09-03T06:13:56;24.42;;;20.50;;
54167;SDS011;40072;50.958;3.592;2022-09-03T06:16:25;25.35;;;20.50;;
54167;SDS011;40072;50.958;3.592;2022-09-03T06:18:51;25.63;;;20.52;;
54167;SDS011;40072;50.958;3.592;2022-09-03T06:21:18;21.85;;;19.50;;
54167;SDS011;40072;50.958;3.592;2022-09-03T06:23:47;20.77;;;18.55;;
54167;SDS011;40072;50.958;3.592;2022-09-03T06:26:15;26.63;;;19.75;;
54167;SDS011;40072;50.958;3.592;2022-09-03T06:28:42;24.58;;;19.40;;
54167;SDS011;40072;50.958;3.592;2022-09-03T06:31:09;23.73;;;19.45;;
54167;SDS011;40072;50.958;3.592;2022-09-03T06:33:40;22.60;;;20.30;;
54167;SDS011;40072;50.958;3.592;2022-09-03T06:36:07;23.02;;;19.65;;
54167;SDS011;40072;50.958;3.592;2022-09-03T06:38:35;21.17;;;19.08;;
54167;SDS011;40072;50.958;3.592;2022-09-03T06:41:12;20.50;;;18.25;;
54167;SDS011;40072;50.958;3.592;2022-09-03T06:43:45;23.42;;;19.63;;
54167;SDS011;40072;50.958;3.592;2022-09-03T06:46:12;22.75;;;18.67;;
54167;SDS011;40072;50.958;3.592;2022-09-03T06:48:39;20.63;;;18.48;;
54167;SDS011;40072;50.958;3.592;2022-09-03T06:51:10;25.00;;;18.75;;
54167;SDS011;40072;50.958;3.592;2022-09-03T06:53:51;23.33;;;18.00;;
54167;SDS011;40072;50.958;3.592;2022-09-03T06:56:19;22.90;;;17.23;;
54167;SDS011;40072;50.958;3.592;2022-09-03T06:58:52;19.35;;;17.33;;
54167;SDS011;40072;50.958;3.592;2022-09-03T07:01:22;21.08;;;18.65;;
54167;SDS011;40072;50.958;3.592;2022-09-03T07:03:55;21.08;;;18.83;;
54167;SDS011;40072;50.958;3.592;2022-09-03T07:06:26;21.08;;;18.73;;
54167;SDS011;40072;50.958;3.592;2022-09-03T07:08:56;21.80;;;19.58;;
54167;SDS011;40072;50.958;3.592;2022-09-03T07:11:24;21.83;;;19.35;;
54167;SDS011;40072;50.958;3.592;2022-09-03T07:13:53;21.75;;;19.42;;
54167;SDS011;40072;50.958;3.592;2022-09-03T07:18:46;22.02;;;18.60;;
54167;SDS011;40072;50.958;3.592;2022-09-03T07:21:20;20.00;;;17.95;;
54167;SDS011;40072;50.958;3.592;2022-09-03T07:23:47;19.15;;;16.92;;
54167;SDS011;40072;50.958;3.592;2022-09-03T07:26:16;19.25;;;17.35;;
54167;SDS011;40072;50.958;3.592;2022-09-03T07:28:49;19.10;;;17.08;;
54167;SDS011;40072;50.958;3.592;2022-09-03T07:31:19;18.50;;;16.60;;
54167;SDS011;40072;50.958;3.592;2022-09-03T07:34:11;22.42;;;16.92;;
54167;SDS011;40072;50.958;3.592;2022-09-03T07:36:40;24.33;;;18.70;;
54167;SDS011;40072;50.958;3.592;2022-09-03T07:39:08;57.90;;;20.00;;
54167;SDS011;40072;50.958;3.592;2022-09-03T07:41:38;24.10;;;18.75;;
54167;SDS011;40072;50.958;3.592;2022-09-03T07:44:07;20.87;;;18.73;;
54167;SDS011;40072;50.958;3.592;2022-09-03T07:46:34;23.38;;;18.52;;
54167;SDS011;40072;50.958;3.592;2022-09-03T07:49:02;19.53;;;17.50;;
54167;SDS011;40072;50.958;3.592;2022-09-03T07:51:30;27.02;;;16.75;;
54167;SDS011;40072;50.958;3.592;2022-09-03T07:53:59;17.25;;;15.55;;
54167;SDS011;40072;50.958;3.592;2022-09-03T07:56:26;20.70;;;15.30;;
54167;SDS011;40072;50.958;3.592;2022-09-03T07:58:55;16.30;;;14.05;;
54167;SDS011;40072;50.958;3.592;2022-09-03T08:01:22;19.77;;;14.85;;
54167;SDS011;40072;50.958;3.592;2022-09-03T08:03:50;19.52;;;13.98;;
54167;SDS011;40072;50.958;3.592;2022-09-03T08:06:20;13.48;;;12.23;;
54167;SDS011;40072;50.958;3.592;2022-09-03T08:08:47;12.25;;;11.05;;
54167;SDS011;40072;50.958;3.592;2022-09-03T08:11:19;16.25;;;11.90;;
54167;SDS011;40072;50.958;3.592;2022-09-03T08:14:07;14.27;;;12.63;;
54167;SDS011;40072;50.958;3.592;2022-09-03T08:16:37;14.82;;;11.18;;
54167;SDS011;40072;50.958;3.592;2022-09-03T08:19:04;14.13;;;12.23;;
54167;SDS011;40072;50.958;3.592;2022-09-03T08:21:30;14.60;;;11.02;;
54167;SDS011;40072;50.958;3.592;2022-09-03T08:23:56;13.43;;;11.40;;
54167;SDS011;40072;50.958;3.592;2022-09-03T08:26:29;10.73;;;9.60;;
54167;SDS011;40072;50.958;3.592;2022-09-03T08:28:56;11.45;;;9.15;;
54167;SDS011;40072;50.958;3.592;2022-09-03T08:31:22;12.95;;;9.57;;
54167;SDS011;40072;50.958;3.592;2022-09-03T08:33:52;9.35;;;8.30;;
54167;SDS011;40072;50.958;3.592;2022-09-03T08:38:47;8.50;;;6.57;;
54167;SDS011;40072;50.958;3.592;2022-09-03T08:54:50;8.63;;;6.40;;
54167;SDS011;40072;50.958;3.592;2022-09-03T08:57:19;9.75;;;6.20;;
54167;SDS011;40072;50.958;3.592;2022-09-03T08:59:46;10.18;;;6.20;;
54167;SDS011;40072;50.958;3.592;2022-09-03T09:02:31;9.65;;;6.25;;
54167;SDS011;40072;50.958;3.592;2022-09-03T09:05:11;8.48;;;5.25;;
54167;SDS011;40072;50.958;3.592;2022-09-03T09:07:50;9.02;;;6.13;;
54167;SDS011;40072;50.958;3.592;2022-09-03T09:10:31;10.18;;;5.85;;
54167;SDS011;40072;50.958;3.592;2022-09-03T09:15:49;6.00;;;5.38;;
54167;SDS011;40072;50.958;3.592;2022-09-03T09:20:58;10.60;;;5.68;;
54167;SDS011;40072;50.958;3.592;2022-09-03T09:23:43;5.65;;;5.15;;
54167;SDS011;40072;50.958;3.592;2022-09-03T09:28:39;10.07;;;5.05;;
54167;SDS011;40072;50.958;3.592;2022-09-03T09:31:06;8.82;;;5.93;;
54167;SDS011;40072;50.958;3.592;2022-09-03T09:33:36;5.68;;;5.00;;
54167;SDS011;40072;50.958;3.592;2022-09-03T09:36:03;7.22;;;5.57;;
54167;SDS011;40072;50.958;3.592;2022-09-03T09:38:36;9.50;;;5.57;;
54167;SDS011;40072;50.958;3.592;2022-09-03T09:41:09;10.13;;;5.35;;
54167;SDS011;40072;50.958;3.592;2022-09-03T09:43:47;6.70;;;4.93;;
54167;SDS011;40072;50.958;3.592;2022-09-03T09:46:26;5.47;;;4.80;;
54167;SDS011;40072;50.958;3.592;2022-09-03T09:48:59;5.90;;;4.88;;
54167;SDS011;40072;50.958;3.592;2022-09-03T09:51:26;7.35;;;5.38;;
54167;SDS011;40072;50.958;3.592;2022-09-03T09:54:01;6.20;;;5.05;;
54167;SDS011;40072;50.958;3.592;2022-09-03T09:56:46;13.63;;;4.93;;
54167;SDS011;40072;50.958;3.592;2022-09-03T09:59:22;5.43;;;4.45;;
54167;SDS011;40072;50.958;3.592;2022-09-03T10:01:48;14.95;;;5.13;;
54167;SDS011;40072;50.958;3.592;2022-09-03T10:04:23;4.88;;;4.35;;
54167;SDS011;40072;50.958;3.592;2022-09-03T10:06:53;10.00;;;4.90;;
54167;SDS011;40072;50.958;3.592;2022-09-03T10:09:29;7.10;;;4.55;;
54167;SDS011;40072;50.958;3.592;2022-09-03T10:14:39;6.55;;;4.88;;
54167;SDS011;40072;50.958;3.592;2022-09-03T10:20:23;5.85;;;5.22;;
54167;SDS011;40072;50.958;3.592;2022-09-03T10:28:08;7.82;;;5.80;;
54167;SDS011;40072;50.958;3.592;2022-09-03T10:30:50;7.65;;;6.30;;
54167;SDS011;40072;50.958;3.592;2022-09-03T10:33:43;8.00;;;6.40;;
54167;SDS011;40072;50.958;3.592;2022-09-03T10:36:22;6.80;;;6.13;;
54167;SDS011;40072;50.958;3.592;2022-09-03T10:38:57;8.68;;;5.63;;
54167;SDS011;40072;50.958;3.592;2022-09-03T10:44:12;8.50;;;6.88;;
54167;SDS011;40072;50.958;3.592;2022-09-03T10:47:09;10.43;;;7.22;;
54167;SDS011;40072;50.958;3.592;2022-09-03T10:49:49;8.90;;;7.68;;
54167;SDS011;40072;50.958;3.592;2022-09-03T10:57:44;15.15;;;8.18;;
54167;SDS011;40072;50.958;3.592;2022-09-03T11:00:18;11.15;;;9.38;;
54167;SDS011;40072;50.958;3.592;2022-09-03T11:08:16;10.88;;;8.48;;
54167;SDS011;40072;50.958;3.592;2022-09-03T11:11:51;9.57;;;8.65;;
54167;SDS011;40072;50.958;3.592;2022-09-03T11:14:07;9.38;;;7.70;;
54167;SDS011;40072;50.958;3.592;2022-09-03T11:16:39;10.27;;;7.32;;
54167;SDS011;40072;50.958;3.592;2022-09-03T11:19:13;11.35;;;8.13;;
54167;SDS011;40072;50.958;3.592;2022-09-03T11:24:24;12.93;;;9.23;;
54167;SDS011;40072;50.958;3.592;2022-09-03T11:27:16;11.07;;;8.40;;
54167;SDS011;40072;50.958;3.592;2022-09-03T11:30:04;13.00;;;9.35;;
54167;SDS011;40072;50.958;3.592;2022-09-03T11:32:48;10.98;;;8.23;;
54167;SDS011;40072;50.958;3.592;2022-09-03T11:35:26;13.45;;;9.77;;
54167;SDS011;40072;50.958;3.592;2022-09-03T11:38:02;11.02;;;8.80;;
54167;SDS011;40072;50.958;3.592;2022-09-03T11:40:32;13.32;;;10.13;;
54167;SDS011;40072;50.958;3.592;2022-09-03T11:43:23;12.70;;;8.20;;
54167;SDS011;40072;50.958;3.592;2022-09-03T11:48:43;11.50;;;9.73;;
54167;SDS011;40072;50.958;3.592;2022-09-03T11:56:38;7.82;;;6.10;;
54167;SDS011;40072;50.958;3.592;2022-09-03T11:59:15;7.30;;;6.60;;
54167;SDS011;40072;50.958;3.592;2022-09-03T12:01:52;7.45;;;6.75;;
54167;SDS011;40072;50.958;3.592;2022-09-03T12:04:25;10.85;;;6.97;;
54167;SDS011;40072;50.958;3.592;2022-09-03T12:10:24;8.93;;;8.00;;
54167;SDS011;40072;50.958;3.592;2022-09-03T12:18:54;7.82;;;4.88;;
54167;SDS011;40072;50.958;3.592;2022-09-03T12:21:36;4.28;;;3.88;;
54167;SDS011;40072;50.958;3.592;2022-09-03T12:24:02;4.50;;;4.10;;
54167;SDS011;40072;50.958;3.592;2022-09-03T12:26:28;4.43;;;4.03;;
54167;SDS011;40072;50.958;3.592;2022-09-03T12:28:57;10.52;;;5.10;;
54167;SDS011;40072;50.958;3.592;2022-09-03T12:31:28;6.57;;;4.45;;
54167;SDS011;40072;50.958;3.592;2022-09-03T12:34:02;5.60;;;4.95;;
54167;SDS011;40072;50.958;3.592;2022-09-03T12:36:44;5.38;;;4.88;;
54167;SDS011;40072;50.958;3.592;2022-09-03T12:39:16;12.43;;;6.35;;
54167;SDS011;40072;50.958;3.592;2022-09-03T12:42:02;6.80;;;5.00;;
54167;SDS011;40072;50.958;3.592;2022-09-03T12:44:31;4.20;;;3.78;;
54167;SDS011;40072;50.958;3.592;2022-09-03T12:49:39;4.07;;;3.15;;
54167;SDS011;40072;50.958;3.592;2022-09-03T12:52:08;4.30;;;2.35;;
54167;SDS011;40072;50.958;3.592;2022-09-03T12:54:42;6.30;;;2.53;;
54167;SDS011;40072;50.958;3.592;2022-09-03T12:57:21;3.15;;;2.80;;
54167;SDS011;40072;50.958;3.592;2022-09-03T12:59:54;3.83;;;3.35;;
54167;SDS011;40072;50.958;3.592;2022-09-03T13:04:51;2.28;;;2.05;;
54167;SDS011;40072;50.958;3.592;2022-09-03T13:07:22;3.08;;;2.00;;
54167;SDS011;40072;50.958;3.592;2022-09-03T13:10:03;3.45;;;2.20;;
54167;SDS011;40072;50.958;3.592;2022-09-03T13:12:56;5.10;;;2.50;;
54167;SDS011;40072;50.958;3.592;2022-09-03T13:15:22;7.03;;;2.38;;
54167;SDS011;40072;50.958;3.592;2022-09-03T13:31:28;3.75;;;2.75;;
54167;SDS011;40072;50.958;3.592;2022-09-03T13:34:02;6.28;;;2.45;;
54167;SDS011;40072;50.958;3.592;2022-09-03T13:36:39;3.85;;;1.80;;
54167;SDS011;40072;50.958;3.592;2022-09-03T13:39:19;7.28;;;2.13;;
54167;SDS011;40072;50.958;3.592;2022-09-03T13:41:56;2.83;;;2.03;;
54167;SDS011;40072;50.958;3.592;2022-09-03T13:44:48;1.73;;;1.60;;
54167;SDS011;40072;50.958;3.592;2022-09-03T13:50:01;2.63;;;1.27;;
54167;SDS011;40072;50.958;3.592;2022-09-03T13:55:32;3.05;;;1.80;;
54167;SDS011;40072;50.958;3.592;2022-09-03T13:58:46;2.30;;;1.50;;
54167;SDS011;40072;50.958;3.592;2022-09-03T14:14:59;5.28;;;1.63;;
54167;SDS011;40072;50.958;3.592;2022-09-03T14:17:46;3.67;;;1.70;;
54167;SDS011;40072;50.958;3.592;2022-09-03T14:20:21;2.58;;;1.50;;
54167;SDS011;40072;50.958;3.592;2022-09-03T14:22:55;2.47;;;1.67;;
54167;SDS011;40072;50.958;3.592;2022-09-03T14:25:28;2.93;;;1.47;;
54167;SDS011;40072;50.958;3.592;2022-09-03T14:27:54;4.13;;;1.70;;
54167;SDS011;40072;50.958;3.592;2022-09-03T14:36:23;1.55;;;1.45;;
54167;SDS011;40072;50.958;3.592;2022-09-03T14:50:18;10.45;;;2.40;;
54167;SDS011;40072;50.958;3.592;2022-09-03T14:52:56;3.33;;;1.50;;
54167;SDS011;40072;50.958;3.592;2022-09-03T15:01:25;2.85;;;1.55;;
54167;SDS011;40072;50.958;3.592;2022-09-03T15:12:17;1.75;;;1.40;;
54167;SDS011;40072;50.958;3.592;2022-09-03T15:15:16;5.05;;;1.13;;
54167;SDS011;40072;50.958;3.592;2022-09-03T15:20:52;5.03;;;1.63;;
54167;SDS011;40072;50.958;3.592;2022-09-03T15:23:22;1.70;;;1.20;;
54167;SDS011;40072;50.958;3.592;2022-09-03T15:34:18;1.98;;;1.60;;
54167;SDS011;40072;50.958;3.592;2022-09-03T15:36:56;2.20;;;1.50;;
54167;SDS011;40072;50.958;3.592;2022-09-03T15:39:29;3.95;;;2.03;;
54167;SDS011;40072;50.958;3.592;2022-09-03T15:44:27;5.45;;;1.70;;
54167;SDS011;40072;50.958;3.592;2022-09-03T15:47:08;4.07;;;1.80;;
54167;SDS011;40072;50.958;3.592;2022-09-03T15:54:51;3.60;;;1.85;;
54167;SDS011;40072;50.958;3.592;2022-09-03T16:00:55;2.60;;;1.63;;
54167;SDS011;40072;50.958;3.592;2022-09-03T16:03:29;2.58;;;1.42;;
54167;SDS011;40072;50.958;3.592;2022-09-03T16:05:59;2.20;;;1.45;;
54167;SDS011;40072;50.958;3.592;2022-09-03T16:08:40;1.55;;;1.30;;
54167;SDS011;40072;50.958;3.592;2022-09-03T16:11:21;0.85;;;0.85;;
54167;SDS011;40072;50.958;3.592;2022-09-03T16:14:32;1.58;;;1.13;;
54167;SDS011;40072;50.958;3.592;2022-09-03T16:28:58;4.75;;;2.10;;
54167;SDS011;40072;50.958;3.592;2022-09-03T16:34:03;3.85;;;2.00;;
54167;SDS011;40072;50.958;3.592;2022-09-03T16:42:39;2.47;;;2.13;;
54167;SDS011;40072;50.958;3.592;2022-09-03T16:45:33;3.10;;;2.00;;
54167;SDS011;40072;50.958;3.592;2022-09-03T16:48:35;2.15;;;1.45;;
54167;SDS011;40072;50.958;3.592;2022-09-03T17:02:47;2.72;;;1.70;;
54167;SDS011;40072;50.958;3.592;2022-09-03T17:05:38;4.97;;;1.70;;
54167;SDS011;40072;50.958;3.592;2022-09-03T17:11:25;3.38;;;1.15;;
54167;SDS011;40072;50.958;3.592;2022-09-03T17:19:50;5.68;;;1.58;;
54167;SDS011;40072;50.958;3.592;2022-09-03T17:25:39;5.03;;;1.63;;
54167;SDS011;40072;50.958;3.592;2022-09-03T17:30:56;5.50;;;1.65;;
54167;SDS011;40072;50.958;3.592;2022-09-03T17:36:21;2.35;;;1.38;;
54167;SDS011;40072;50.958;3.592;2022-09-03T17:54:51;3.65;;;1.92;;
54167;SDS011;40072;50.958;3.592;2022-09-03T17:57:22;4.60;;;2.00;;
54167;SDS011;40072;50.958;3.592;2022-09-03T18:00:08;1.55;;;1.45;;
54167;SDS011;40072;50.958;3.592;2022-09-03T18:02:38;8.65;;;1.73;;
54167;SDS011;40072;50.958;3.592;2022-09-03T18:05:29;7.60;;;2.05;;
54167;SDS011;40072;50.958;3.592;2022-09-03T18:08:11;5.17;;;1.93;;
54167;SDS011;40072;50.958;3.592;2022-09-03T18:10:43;4.38;;;1.77;;
54167;SDS011;40072;50.958;3.592;2022-09-03T18:16:23;4.13;;;1.77;;
54167;SDS011;40072;50.958;3.592;2022-09-03T18:19:22;4.72;;;1.70;;
54167;SDS011;40072;50.958;3.592;2022-09-03T18:21:57;10.18;;;2.70;;
54167;SDS011;40072;50.958;3.592;2022-09-03T18:24:55;4.60;;;2.13;;
54167;SDS011;40072;50.958;3.592;2022-09-03T18:27:46;5.35;;;1.75;;
54167;SDS011;40072;50.958;3.592;2022-09-03T18:30:36;8.77;;;2.10;;
54167;SDS011;40072;50.958;3.592;2022-09-03T18:33:22;1.90;;;1.65;;
54167;SDS011;40072;50.958;3.592;2022-09-03T18:36:07;4.18;;;2.15;;
54167;SDS011;40072;50.958;3.592;2022-09-03T18:38:52;2.30;;;2.10;;
54167;SDS011;40072;50.958;3.592;2022-09-03T18:47:45;6.55;;;2.10;;
54167;SDS011;40072;50.958;3.592;2022-09-03T18:56:54;5.82;;;2.00;;
54167;SDS011;40072;50.958;3.592;2022-09-03T18:59:48;4.75;;;2.15;;
54167;SDS011;40072;50.958;3.592;2022-09-03T19:11:32;8.13;;;3.88;;
54167;SDS011;40072;50.958;3.592;2022-09-03T19:17:25;6.10;;;3.97;;
54167;SDS011;40072;50.958;3.592;2022-09-03T19:20:29;8.65;;;3.55;;
54167;SDS011;40072;50.958;3.592;2022-09-03T19:23:14;8.73;;;3.40;;
54167;SDS011;40072;50.958;3.592;2022-09-03T19:26:04;7.63;;;4.40;;
54167;SDS011;40072;50.958;3.592;2022-09-03T19:33:24;7.10;;;5.43;;
54167;SDS011;40072;50.958;3.592;2022-09-03T19:35:47;13.13;;;6.65;;
54167;SDS011;40072;50.958;3.592;2022-09-03T19:41:44;7.70;;;6.13;;
54167;SDS011;40072;50.958;3.592;2022-09-03T19:47:43;12.50;;;5.20;;
54167;SDS011;40072;50.958;3.592;2022-09-03T19:50:36;6.97;;;5.47;;
54167;SDS011;40072;50.958;3.592;2022-09-03T19:53:26;10.80;;;6.25;;
54167;SDS011;40072;50.958;3.592;2022-09-03T19:56:21;12.68;;;5.90;;
54167;SDS011;40072;50.958;3.592;2022-09-03T19:59:19;9.27;;;6.13;;
54167;SDS011;40072;50.958;3.592;2022-09-03T20:02:07;12.63;;;5.95;;
54167;SDS011;40072;50.958;3.592;2022-09-03T20:07:40;7.68;;;5.90;;
54167;SDS011;40072;50.958;3.592;2022-09-03T20:10:24;10.18;;;6.55;;
54167;SDS011;40072;50.958;3.592;2022-09-03T20:18:38;12.00;;;8.55;;
54167;SDS011;40072;50.958;3.592;2022-09-03T20:21:24;14.00;;;9.52;;
54167;SDS011;40072;50.958;3.592;2022-09-03T20:24:18;11.68;;;9.30;;
54167;SDS011;40072;50.958;3.592;2022-09-03T20:30:06;17.30;;;12.60;;
54167;SDS011;40072;50.958;3.592;2022-09-03T20:38:08;10.25;;;8.95;;
54167;SDS011;40072;50.958;3.592;2022-09-03T20:41:27;16.80;;;10.18;;
54167;SDS011;40072;50.958;3.592;2022-09-03T20:46:55;12.30;;;9.68;;
54167;SDS011;40072;50.958;3.592;2022-09-03T20:52:50;10.90;;;9.45;;